Time;durP1;ratioP1;P1;durP2;ratioP2;P2;SDS_P1;SDS_P2;PMS_P1;PMS_P2;Temp;Humidity;BMP_temperature;BMP_pressure;BME280_temperature;BME280_humidity;BME280_pressure;Samples;Min_cycle;Max_cycle;Signal;HPM_P1;HPM_P2
2022/07/25 00:00:57;;;;;;;4.57;4.28;;;;;;;;;;5135903;27;20195;-64
2022/07/25 00:03:24;;;;;;;4.53;4.22;;;;;;;;;;5135384;27;20202;-63
2022/07/25 00:05:52;;;;;;;4.22;4.03;;;;;;;;;;5126225;27;20201;-63
2022/07/25 00:08:20;;;;;;;4.85;4.45;;;;;;;;;;5132608;27;20195;-63
2022/07/25 00:10:48;;;;;;;4.60;4.30;;;;;;;;;;5133817;27;20448;-64
2022/07/25 00:13:15;;;;;;;5.00;4.70;;;;;;;;;;5126851;27;20256;-63
2022/07/25 00:15:43;;;;;;;5.35;4.60;;;;;;;;;;5114305;27;20198;-63
2022/07/25 00:18:10;;;;;;;4.97;4.57;;;;;;;;;;5125030;27;20229;-63
2022/07/25 00:20:37;;;;;;;4.50;4.20;;;;;;;;;;5122506;27;20448;-63
2022/07/25 00:23:05;;;;;;;4.80;4.40;;;;;;;;;;5122921;27;20305;-63
2022/07/25 00:25:33;;;;;;;5.03;4.63;;;;;;;;;;5133175;27;20191;-63
2022/07/25 00:28:01;;;;;;;4.57;4.28;;;;;;;;;;5129572;27;20266;-63
2022/07/25 00:30:28;;;;;;;4.63;4.20;;;;;;;;;;5129529;27;20464;-63
2022/07/25 00:32:55;;;;;;;5.05;4.50;;;;;;;;;;5136061;27;20195;-63
2022/07/25 00:35:23;;;;;;;4.60;4.30;;;;;;;;;;5126913;27;20251;-63
2022/07/25 00:37:50;;;;;;;4.75;4.38;;;;;;;;;;5127314;27;20218;-63
2022/07/25 00:40:18;;;;;;;4.47;4.18;;;;;;;;;;5124186;27;20586;-63
2022/07/25 00:42:46;;;;;;;4.78;4.38;;;;;;;;;;5131403;27;20202;-63
2022/07/25 00:45:13;;;;;;;4.68;4.28;;;;;;;;;;5124912;27;20202;-63
2022/07/25 00:47:41;;;;;;;4.80;4.40;;;;;;;;;;5126637;27;20195;-63
2022/07/25 00:50:09;;;;;;;4.53;4.15;;;;;;;;;;5129903;27;20210;-63
2022/07/25 00:52:36;;;;;;;4.38;4.05;;;;;;;;;;5121342;27;20713;-63
2022/07/25 00:55:03;;;;;;;4.50;4.10;;;;;;;;;;5126999;27;20210;-63
2022/07/25 00:57:31;;;;;;;5.07;4.20;;;;;;;;;;5129265;27;20288;-63
2022/07/25 00:59:59;;;;;;;4.78;4.38;;;;;;;;;;5118939;28;20590;-63
2022/07/25 01:02:27;;;;;;;4.45;4.03;;;;;;;;;;5123681;27;20648;-63
2022/07/25 01:04:55;;;;;;;4.90;4.50;;;;;;;;;;5122659;27;20195;-63
2022/07/25 01:07:24;;;;;;;4.60;4.20;;;;;;;;;;5129020;27;20274;-63
2022/07/25 01:09:51;;;;;;;5.00;4.60;;;;;;;;;;5135330;27;20595;-63
2022/07/25 01:12:18;;;;;;;4.38;4.07;;;;;;;;;;5123877;27;20198;-63
2022/07/25 01:14:46;;;;;;;4.82;4.53;;;;;;;;;;5121262;27;20203;-63
2022/07/25 01:17:15;;;;;;;4.78;4.47;;;;;;;;;;5136229;27;20278;-66
2022/07/25 01:19:42;;;;;;;4.60;4.28;;;;;;;;;;5127211;27;20212;-63
2022/07/25 01:22:12;;;;;;;4.65;4.35;;;;;;;;;;5129003;27;20202;-63
2022/07/25 01:24:39;;;;;;;5.03;4.63;;;;;;;;;;5129503;27;20578;-64
2022/07/25 01:27:07;;;;;;;4.50;4.20;;;;;;;;;;5126452;27;20195;-63
2022/07/25 01:29:34;;;;;;;4.50;4.20;;;;;;;;;;5131279;27;20219;-63
2022/07/25 01:32:01;;;;;;;4.82;4.53;;;;;;;;;;5131989;27;20195;-63
2022/07/25 01:34:28;;;;;;;4.45;4.07;;;;;;;;;;5134856;28;20624;-63
2022/07/25 01:36:56;;;;;;;4.63;4.22;;;;;;;;;;5127128;28;20195;-63
2022/07/25 01:39:25;;;;;;;4.60;4.30;;;;;;;;;;5124641;28;20195;-64
2022/07/25 01:41:52;;;;;;;4.70;4.40;;;;;;;;;;5108205;28;20227;-63
2022/07/25 01:44:19;;;;;;;4.80;4.50;;;;;;;;;;5126171;28;20202;-63
2022/07/25 01:46:46;;;;;;;4.53;4.22;;;;;;;;;;5129568;28;20259;-63
2022/07/25 01:49:14;;;;;;;5.00;4.53;;;;;;;;;;5126578;28;20263;-63
2022/07/25 01:51:42;;;;;;;4.88;4.50;;;;;;;;;;5126262;28;20589;-63
2022/07/25 01:54:09;;;;;;;4.65;4.35;;;;;;;;;;5132796;28;20228;-63
2022/07/25 01:56:38;;;;;;;4.47;4.18;;;;;;;;;;5126816;27;20482;-63
2022/07/25 01:59:05;;;;;;;4.90;4.60;;;;;;;;;;5136143;27;20230;-64
2022/07/25 02:01:32;;;;;;;4.80;4.40;;;;;;;;;;5139485;27;20190;-63
2022/07/25 02:03:59;;;;;;;4.85;4.53;;;;;;;;;;5119476;27;20198;-63
2022/07/25 02:06:27;;;;;;;4.93;4.53;;;;;;;;;;5125316;27;20207;-63
2022/07/25 02:08:54;;;;;;;4.80;4.50;;;;;;;;;;5125728;27;20190;-63
2022/07/25 02:11:21;;;;;;;4.85;4.45;;;;;;;;;;5132835;27;20538;-63
2022/07/25 02:13:50;;;;;;;4.70;4.32;;;;;;;;;;5125654;27;20199;-63
2022/07/25 02:16:18;;;;;;;4.75;4.45;;;;;;;;;;5133603;27;20195;-63
2022/07/25 02:18:45;;;;;;;4.93;4.63;;;;;;;;;;5129442;27;20530;-64
2022/07/25 02:21:12;;;;;;;5.18;4.78;;;;;;;;;;5122816;27;20281;-63
2022/07/25 02:23:40;;;;;;;5.15;4.78;;;;;;;;;;5130845;27;20548;-63
2022/07/25 02:26:07;;;;;;;5.20;4.88;;;;;;;;;;5135874;27;20289;-64
2022/07/25 02:28:35;;;;;;;4.88;4.57;;;;;;;;;;5127881;27;20218;-63
2022/07/25 02:31:04;;;;;;;5.10;4.80;;;;;;;;;;5141524;27;20195;-64
2022/07/25 02:33:31;;;;;;;5.40;5.00;;;;;;;;;;5138971;27;20207;-63
2022/07/25 02:35:59;;;;;;;5.55;5.15;;;;;;;;;;5139528;27;20190;-63
2022/07/25 02:38:26;;;;;;;5.43;5.00;;;;;;;;;;5133942;27;20282;-63
2022/07/25 02:40:54;;;;;;;5.13;4.80;;;;;;;;;;5132730;27;20201;-63
2022/07/25 02:43:21;;;;;;;5.40;5.00;;;;;;;;;;5139318;27;20198;-63
2022/07/25 02:45:48;;;;;;;4.85;4.45;;;;;;;;;;5139463;27;20290;-68
2022/07/25 02:48:17;;;;;;;4.95;4.57;;;;;;;;;;5139540;27;20194;-63
2022/07/25 02:50:44;;;;;;;5.20;4.90;;;;;;;;;;5140483;27;20195;-63
2022/07/25 02:53:12;;;;;;;5.40;5.03;;;;;;;;;;5138718;27;20288;-63
2022/07/25 02:55:39;;;;;;;5.10;4.72;;;;;;;;;;5139050;27;20272;-63
2022/07/25 02:58:06;;;;;;;4.95;4.65;;;;;;;;;;5140915;27;20634;-63
2022/07/25 03:00:34;;;;;;;4.97;4.68;;;;;;;;;;5138925;27;20255;-63
2022/07/25 03:03:01;;;;;;;5.00;4.60;;;;;;;;;;5140049;27;20531;-63
2022/07/25 03:05:30;;;;;;;5.50;5.00;;;;;;;;;;5138735;27;20194;-63
2022/07/25 03:07:57;;;;;;;5.50;5.10;;;;;;;;;;5130304;27;20194;-63
2022/07/25 03:10:25;;;;;;;5.35;4.95;;;;;;;;;;5137644;27;20255;-63
2022/07/25 03:12:52;;;;;;;5.88;5.47;;;;;;;;;;5137979;27;20206;-62
2022/07/25 03:15:19;;;;;;;5.38;4.90;;;;;;;;;;5138776;27;20203;-62
2022/07/25 03:17:46;;;;;;;5.43;5.03;;;;;;;;;;5137381;27;20218;-62
2022/07/25 03:20:14;;;;;;;5.43;5.03;;;;;;;;;;5137842;27;20260;-62
2022/07/25 03:22:42;;;;;;;5.78;5.32;;;;;;;;;;5137696;27;20205;-62
2022/07/25 03:25:10;;;;;;;5.65;5.25;;;;;;;;;;5137630;27;20198;-62
2022/07/25 03:27:37;;;;;;;5.35;4.95;;;;;;;;;;5137048;27;20545;-62
2022/07/25 03:30:05;;;;;;;5.80;5.40;;;;;;;;;;5138423;27;20237;-62
2022/07/25 03:32:32;;;;;;;5.47;5.07;;;;;;;;;;5130779;27;20258;-62
2022/07/25 03:34:59;;;;;;;5.90;5.50;;;;;;;;;;5136989;27;20540;-62
2022/07/25 03:37:27;;;;;;;5.65;5.28;;;;;;;;;;5139017;27;20209;-62
2022/07/25 03:39:56;;;;;;;5.78;5.28;;;;;;;;;;5136930;27;20194;-62
2022/07/25 03:42:23;;;;;;;6.20;5.80;;;;;;;;;;5139626;27;20586;-63
2022/07/25 03:44:51;;;;;;;6.10;5.60;;;;;;;;;;5136781;27;20297;-62
2022/07/25 03:47:18;;;;;;;6.28;5.85;;;;;;;;;;5138435;27;20258;-62
2022/07/25 03:49:45;;;;;;;5.68;5.28;;;;;;;;;;5136722;27;20469;-62
2022/07/25 03:52:13;;;;;;;5.50;5.10;;;;;;;;;;5138505;27;20265;-63
2022/07/25 03:54:40;;;;;;;6.07;5.57;;;;;;;;;;5137553;27;20271;-62
2022/07/25 03:57:10;;;;;;;6.47;6.07;;;;;;;;;;5136545;27;20198;-63
2022/07/25 03:59:37;;;;;;;5.88;5.47;;;;;;;;;;5137043;27;20226;-67
2022/07/25 04:02:05;;;;;;;6.43;5.93;;;;;;;;;;5137115;27;20194;-62
2022/07/25 04:04:32;;;;;;;5.50;5.10;;;;;;;;;;5136346;27;20259;-63
2022/07/25 04:07:00;;;;;;;5.90;5.50;;;;;;;;;;5138819;27;20243;-62
2022/07/25 04:09:27;;;;;;;6.25;5.82;;;;;;;;;;5138197;27;20226;-63
2022/07/25 04:11:54;;;;;;;6.18;5.78;;;;;;;;;;5136076;27;20198;-62
2022/07/25 04:14:23;;;;;;;5.93;5.53;;;;;;;;;;5136487;27;20254;-62
2022/07/25 04:16:50;;;;;;;6.47;6.05;;;;;;;;;;5136685;27;20206;-63
2022/07/25 04:19:18;;;;;;;6.70;6.20;;;;;;;;;;5137187;27;20218;-62
2022/07/25 04:21:45;;;;;;;6.72;6.22;;;;;;;;;;5138255;27;20205;-63
2022/07/25 04:24:13;;;;;;;6.50;6.00;;;;;;;;;;5136504;27;20736;-62
2022/07/25 04:26:40;;;;;;;6.22;5.72;;;;;;;;;;5136725;27;20276;-62
2022/07/25 04:29:07;;;;;;;6.50;5.95;;;;;;;;;;5135636;27;20222;-62
2022/07/25 04:31:36;;;;;;;6.40;5.95;;;;;;;;;;5136044;27;20206;-62
2022/07/25 04:34:04;;;;;;;6.38;5.90;;;;;;;;;;5135778;27;20198;-62
2022/07/25 04:36:31;;;;;;;6.88;6.38;;;;;;;;;;5136857;27;20259;-63
2022/07/25 04:38:58;;;;;;;6.60;6.10;;;;;;;;;;5135628;27;20613;-63
2022/07/25 04:41:25;;;;;;;6.57;6.07;;;;;;;;;;5134060;27;20202;-63
2022/07/25 04:43:53;;;;;;;6.88;6.38;;;;;;;;;;5135325;27;20224;-63
2022/07/25 04:46:21;;;;;;;6.70;6.20;;;;;;;;;;5135288;27;20529;-63
2022/07/25 04:48:50;;;;;;;6.35;5.95;;;;;;;;;;5135470;27;20248;-62
2022/07/25 04:51:18;;;;;;;6.60;6.10;;;;;;;;;;5124704;27;20258;-63
2022/07/25 04:53:45;;;;;;;6.53;6.03;;;;;;;;;;5134976;27;20194;-63
2022/07/25 04:56:12;;;;;;;6.90;6.50;;;;;;;;;;5134071;27;20221;-63
2022/07/25 04:58:39;;;;;;;7.05;6.55;;;;;;;;;;5134738;27;20609;-62
2022/07/25 05:01:07;;;;;;;7.18;6.68;;;;;;;;;;5136734;27;20525;-63
2022/07/25 05:03:34;;;;;;;7.35;6.85;;;;;;;;;;5136067;27;20293;-63
2022/07/25 05:06:03;;;;;;;7.38;6.78;;;;;;;;;;5136508;27;20467;-63
2022/07/25 05:08:30;;;;;;;7.57;7.03;;;;;;;;;;5134473;27;20581;-62
2022/07/25 05:10:58;;;;;;;7.10;6.53;;;;;;;;;;5135721;27;20198;-63
2022/07/25 05:13:25;;;;;;;7.07;6.57;;;;;;;;;;5136908;27;20231;-64
2022/07/25 05:15:53;;;;;;;7.20;6.70;;;;;;;;;;5136242;27;20262;-63
2022/07/25 05:18:20;;;;;;;7.60;7.10;;;;;;;;;;5135748;27;20226;-63
2022/07/25 05:20:48;;;;;;;7.22;6.72;;;;;;;;;;5135284;27;20187;-63
2022/07/25 05:23:16;;;;;;;7.03;6.53;;;;;;;;;;5135059;27;20209;-63
2022/07/25 05:25:44;;;;;;;7.25;6.75;;;;;;;;;;5135458;27;20199;-63
2022/07/25 05:28:13;;;;;;;7.35;6.85;;;;;;;;;;5135447;27;20299;-63
2022/07/25 05:30:40;;;;;;;7.00;6.50;;;;;;;;;;5135131;27;20202;-63
2022/07/25 05:33:08;;;;;;;7.32;6.82;;;;;;;;;;5136340;27;20258;-63
2022/07/25 05:35:35;;;;;;;7.47;6.97;;;;;;;;;;5136369;27;20202;-63
2022/07/25 05:38:03;;;;;;;6.60;6.20;;;;;;;;;;5136018;28;20202;-67
2022/07/25 05:40:32;;;;;;;6.93;6.43;;;;;;;;;;5136445;28;20494;-63
2022/07/25 05:42:59;;;;;;;7.63;7.03;;;;;;;;;;5134919;28;20194;-63
2022/07/25 05:45:26;;;;;;;6.85;6.35;;;;;;;;;;5135394;28;20661;-63
2022/07/25 05:47:54;;;;;;;6.97;6.47;;;;;;;;;;5135834;28;20190;-63
2022/07/25 05:50:21;;;;;;;7.65;7.05;;;;;;;;;;5134224;28;20194;-63
2022/07/25 05:52:48;;;;;;;7.13;6.63;;;;;;;;;;5134547;28;20502;-63
2022/07/25 05:55:16;;;;;;;6.88;6.38;;;;;;;;;;5136284;28;20733;-63
2022/07/25 05:57:45;;;;;;;7.05;6.55;;;;;;;;;;5135542;28;20452;-63
2022/07/25 06:00:12;;;;;;;7.00;6.50;;;;;;;;;;5135392;28;20676;-63
2022/07/25 06:02:40;;;;;;;7.32;6.82;;;;;;;;;;5134389;28;20243;-63
2022/07/25 06:05:07;;;;;;;7.00;6.50;;;;;;;;;;5135844;28;20194;-63
2022/07/25 06:07:35;;;;;;;7.18;6.57;;;;;;;;;;5136328;28;20198;-63
2022/07/25 06:10:02;;;;;;;6.60;6.07;;;;;;;;;;5135052;28;20194;-63
2022/07/25 06:12:32;;;;;;;6.65;6.20;;;;;;;;;;5135467;28;20304;-63
2022/07/25 06:15:01;;;;;;;7.38;6.88;;;;;;;;;;5135221;28;20194;-63
2022/07/25 06:17:28;;;;;;;7.60;7.00;;;;;;;;;;5135215;28;20199;-63
2022/07/25 06:19:55;;;;;;;7.75;7.07;;;;;;;;;;5135653;28;20218;-63
2022/07/25 06:22:23;;;;;;;7.32;6.72;;;;;;;;;;5135605;28;20734;-63
2022/07/25 06:24:50;;;;;;;7.97;7.38;;;;;;;;;;5135223;28;20206;-63
2022/07/25 06:27:17;;;;;;;7.47;6.90;;;;;;;;;;5135369;28;20198;-63
2022/07/25 06:29:44;;;;;;;7.32;6.72;;;;;;;;;;5126863;27;20672;-63
2022/07/25 06:32:13;;;;;;;7.90;7.30;;;;;;;;;;5117838;28;20194;-63
2022/07/25 06:34:41;;;;;;;7.80;7.20;;;;;;;;;;5118334;28;20520;-63
2022/07/25 06:37:08;;;;;;;8.10;7.50;;;;;;;;;;5126644;28;20794;-64
2022/07/25 06:39:36;;;;;;;7.35;6.75;;;;;;;;;;5121253;28;20219;-63
2022/07/25 06:42:03;;;;;;;8.15;7.50;;;;;;;;;;5127935;28;20195;-63
2022/07/25 06:44:32;;;;;;;7.90;7.30;;;;;;;;;;5122263;27;20199;-63
2022/07/25 06:47:00;;;;;;;7.75;7.20;;;;;;;;;;5130679;27;20198;-63
2022/07/25 06:49:29;;;;;;;8.25;7.55;;;;;;;;;;5127505;27;20191;-63
2022/07/25 06:51:56;;;;;;;8.23;7.57;;;;;;;;;;5129342;27;20194;-63
2022/07/25 06:54:23;;;;;;;7.78;7.03;;;;;;;;;;5138691;27;20201;-63
2022/07/25 06:56:51;;;;;;;7.55;6.85;;;;;;;;;;5133342;27;20271;-63
2022/07/25 06:59:18;;;;;;;8.25;7.45;;;;;;;;;;5124337;27;20214;-63
2022/07/25 07:01:46;;;;;;;7.93;7.32;;;;;;;;;;5134225;27;20517;-63
2022/07/25 07:04:13;;;;;;;8.75;8.05;;;;;;;;;;5128187;27;20604;-63
2022/07/25 07:06:42;;;;;;;8.07;7.47;;;;;;;;;;5122529;27;20217;-63
2022/07/25 07:09:09;;;;;;;8.02;7.40;;;;;;;;;;5125034;27;20195;-63
2022/07/25 07:11:37;;;;;;;7.57;6.97;;;;;;;;;;5125542;27;20194;-63
2022/07/25 07:14:04;;;;;;;8.27;7.50;;;;;;;;;;5133296;27;20195;-64
2022/07/25 07:16:32;;;;;;;7.43;6.82;;;;;;;;;;5127089;27;20186;-63
2022/07/25 07:18:59;;;;;;;7.90;7.30;;;;;;;;;;5133169;27;20672;-64
2022/07/25 07:21:27;;;;;;;8.13;7.43;;;;;;;;;;5131798;27;20509;-63
2022/07/25 07:23:55;;;;;;;7.93;7.35;;;;;;;;;;5122940;27;20247;-62
2022/07/25 07:26:23;;;;;;;7.63;7.13;;;;;;;;;;5128732;27;20202;-63
2022/07/25 07:28:53;;;;;;;8.05;7.47;;;;;;;;;;5119940;27;20272;-66
2022/07/25 07:31:20;;;;;;;7.72;7.13;;;;;;;;;;5151412;27;20197;-63
2022/07/25 07:33:47;;;;;;;7.13;6.53;;;;;;;;;;5154650;27;20202;-62
2022/07/25 07:36:15;;;;;;;7.97;7.35;;;;;;;;;;5137307;27;20653;-63
2022/07/25 07:38:43;;;;;;;7.65;7.13;;;;;;;;;;5138104;27;20634;-63
2022/07/25 07:41:12;;;;;;;7.53;6.95;;;;;;;;;;5137394;27;20218;-63
2022/07/25 07:43:39;;;;;;;7.65;7.05;;;;;;;;;;5137810;27;20664;-62
2022/07/25 07:46:07;;;;;;;7.95;7.35;;;;;;;;;;5142306;27;20197;-62
2022/07/25 07:48:34;;;;;;;7.22;6.72;;;;;;;;;;5158315;27;20202;-62
2022/07/25 07:51:03;;;;;;;7.90;7.30;;;;;;;;;;5158504;27;20288;-64
2022/07/25 07:56:13;;;;;;;7.28;6.68;;;;;;;;;;5131718;27;20289;-61
2022/07/25 07:58:40;;;;;;;7.88;7.28;;;;;;;;;;5132048;27;20275;-62
2022/07/25 08:01:07;;;;;;;7.55;7.00;;;;;;;;;;5135097;27;20622;-62
2022/07/25 08:03:35;;;;;;;7.40;6.90;;;;;;;;;;5134366;27;20206;-63
2022/07/25 08:06:02;;;;;;;7.10;6.60;;;;;;;;;;5136071;27;20248;-63
2022/07/25 08:08:30;;;;;;;7.30;6.80;;;;;;;;;;5135952;27;20206;-63
2022/07/25 08:10:58;;;;;;;7.65;7.15;;;;;;;;;;5134986;27;20191;-62
2022/07/25 08:13:28;;;;;;;7.63;7.03;;;;;;;;;;5134639;27;20191;-63
2022/07/25 08:15:57;;;;;;;7.70;7.20;;;;;;;;;;5133751;27;20236;-63
2022/07/25 08:18:24;;;;;;;7.85;7.25;;;;;;;;;;5135880;27;20262;-63
2022/07/25 08:20:52;;;;;;;7.35;6.85;;;;;;;;;;5134152;27;20617;-63
2022/07/25 08:23:21;;;;;;;7.97;7.38;;;;;;;;;;5130808;27;20598;-63
2022/07/25 08:25:48;;;;;;;7.60;7.10;;;;;;;;;;5126752;27;20195;-63
2022/07/25 08:28:16;;;;;;;7.47;6.88;;;;;;;;;;5135383;27;20240;-63
2022/07/25 08:30:44;;;;;;;7.70;7.15;;;;;;;;;;5124115;27;20202;-63
2022/07/25 08:33:14;;;;;;;7.60;7.00;;;;;;;;;;5127772;27;20198;-63
2022/07/25 08:35:46;;;;;;;7.53;7.03;;;;;;;;;;5134592;27;20293;-63
2022/07/25 08:38:13;;;;;;;7.80;7.20;;;;;;;;;;5123759;27;20251;-63
2022/07/25 08:40:40;;;;;;;8.05;7.50;;;;;;;;;;5133597;27;20225;-63
2022/07/25 08:43:11;;;;;;;7.60;7.10;;;;;;;;;;5133484;27;20286;-62
2022/07/25 08:45:41;;;;;;;7.93;7.30;;;;;;;;;;5133195;27;20198;-63
2022/07/25 08:48:10;;;;;;;7.60;7.00;;;;;;;;;;5134902;27;20266;-63
2022/07/25 08:50:39;;;;;;;7.35;6.85;;;;;;;;;;5133495;27;20194;-63
2022/07/25 08:53:06;;;;;;;7.30;6.80;;;;;;;;;;5133044;27;20202;-63
2022/07/25 08:55:33;;;;;;;7.20;6.70;;;;;;;;;;5133244;27;20245;-63
2022/07/25 08:58:01;;;;;;;7.45;6.95;;;;;;;;;;5133970;27;20205;-62
2022/07/25 09:00:29;;;;;;;7.80;7.10;;;;;;;;;;5133978;27;20222;-62
2022/07/25 09:02:58;;;;;;;7.47;6.95;;;;;;;;;;5134283;27;20591;-63
2022/07/25 09:05:27;;;;;;;7.28;6.78;;;;;;;;;;5132337;27;20246;-63
2022/07/25 09:07:55;;;;;;;7.38;6.88;;;;;;;;;;5134466;27;20732;-63
2022/07/25 09:10:23;;;;;;;7.95;7.45;;;;;;;;;;5133820;27;20198;-62
2022/07/25 09:12:54;;;;;;;8.05;7.45;;;;;;;;;;5132377;27;20206;-63
2022/07/25 09:15:29;;;;;;;7.57;6.97;;;;;;;;;;5132734;27;20507;-63
2022/07/25 09:17:57;;;;;;;7.97;7.38;;;;;;;;;;5134186;27;20285;-63
2022/07/25 09:20:25;;;;;;;7.75;7.15;;;;;;;;;;5133838;27;20224;-63
2022/07/25 09:22:54;;;;;;;7.47;6.97;;;;;;;;;;5134496;27;20198;-63
2022/07/25 09:25:22;;;;;;;7.47;6.97;;;;;;;;;;5133701;27;20215;-63
2022/07/25 09:27:50;;;;;;;7.75;7.25;;;;;;;;;;5135168;27;20194;-63
2022/07/25 09:30:18;;;;;;;8.10;7.50;;;;;;;;;;5124469;28;20256;-63
2022/07/25 09:32:45;;;;;;;7.53;7.03;;;;;;;;;;5131365;27;20194;-63
2022/07/25 09:35:13;;;;;;;7.40;6.90;;;;;;;;;;5117735;28;20206;-63
2022/07/25 09:37:40;;;;;;;7.53;7.03;;;;;;;;;;5123229;28;20247;-63
2022/07/25 09:40:15;;;;;;;7.47;6.97;;;;;;;;;;5129745;28;20223;-63
2022/07/25 09:42:45;;;;;;;7.70;7.20;;;;;;;;;;5126761;28;20289;-63
2022/07/25 09:45:14;;;;;;;7.28;6.78;;;;;;;;;;5133193;28;20226;-63
2022/07/25 09:47:51;;;;;;;7.40;6.90;;;;;;;;;;5127907;28;20203;-63
2022/07/25 09:50:18;;;;;;;7.65;7.05;;;;;;;;;;5114771;28;20260;-64
2022/07/25 09:52:46;;;;;;;7.35;6.85;;;;;;;;;;5122728;28;20710;-63
2022/07/25 09:55:15;;;;;;;6.85;6.35;;;;;;;;;;5130967;28;20199;-64
2022/07/25 09:57:43;;;;;;;7.47;6.97;;;;;;;;;;5119303;28;20210;-64
2022/07/25 10:00:12;;;;;;;7.40;6.90;;;;;;;;;;5126953;28;20218;-63
2022/07/25 10:02:48;;;;;;;7.03;6.53;;;;;;;;;;5124872;28;20273;-64
2022/07/25 10:05:17;;;;;;;7.43;6.82;;;;;;;;;;5118969;28;20210;-63
2022/07/25 10:07:46;;;;;;;7.95;7.40;;;;;;;;;;5124831;28;20205;-63
2022/07/25 10:10:24;;;;;;;7.38;6.88;;;;;;;;;;5114771;28;20207;-64
2022/07/25 10:13:02;;;;;;;7.20;6.70;;;;;;;;;;5123243;28;20645;-63
2022/07/25 10:15:40;;;;;;;7.25;6.75;;;;;;;;;;5129842;28;20194;-63
2022/07/25 10:18:07;;;;;;;7.72;7.22;;;;;;;;;;5125135;27;20207;-63
2022/07/25 10:20:35;;;;;;;7.13;6.60;;;;;;;;;;5128912;27;20487;-63
2022/07/25 10:23:02;;;;;;;8.25;7.53;;;;;;;;;;5125232;27;20198;-64
2022/07/25 10:25:31;;;;;;;7.43;6.93;;;;;;;;;;5125584;27;20209;-63
2022/07/25 10:28:02;;;;;;;7.45;6.95;;;;;;;;;;5121799;27;20260;-63
2022/07/25 10:30:39;;;;;;;7.65;7.15;;;;;;;;;;5117958;28;20199;-63
2022/07/25 10:33:12;;;;;;;7.53;6.97;;;;;;;;;;5117336;28;20194;-64
2022/07/25 10:35:40;;;;;;;7.50;7.00;;;;;;;;;;5117226;28;20565;-64
2022/07/25 10:38:07;;;;;;;7.03;6.53;;;;;;;;;;5118242;28;20199;-64
2022/07/25 10:40:38;;;;;;;7.75;6.50;;;;;;;;;;5116571;28;20568;-64
2022/07/25 10:43:09;;;;;;;7.35;6.85;;;;;;;;;;5117533;28;20290;-64
2022/07/25 10:45:43;;;;;;;7.72;7.22;;;;;;;;;;5118075;28;20294;-64
2022/07/25 10:48:12;;;;;;;7.38;6.88;;;;;;;;;;5117445;28;20199;-63
2022/07/25 10:50:49;;;;;;;7.40;6.90;;;;;;;;;;5116948;28;20191;-64
2022/07/25 10:53:28;;;;;;;7.28;6.78;;;;;;;;;;5117747;28;20191;-64
2022/07/25 10:55:59;;;;;;;7.18;6.68;;;;;;;;;;5117845;28;20205;-64
2022/07/25 10:58:26;;;;;;;7.80;7.20;;;;;;;;;;5117036;28;20199;-64
2022/07/25 11:00:54;;;;;;;8.00;7.07;;;;;;;;;;5117396;28;20247;-64
2022/07/25 11:03:21;;;;;;;7.60;7.00;;;;;;;;;;5116819;28;20203;-63
2022/07/25 11:05:53;;;;;;;7.03;6.53;;;;;;;;;;5117732;28;20195;-64
2022/07/25 11:08:30;;;;;;;7.35;6.85;;;;;;;;;;5117325;28;20235;-64
2022/07/25 11:10:59;;;;;;;7.90;7.38;;;;;;;;;;5114681;28;20536;-64
2022/07/25 11:13:27;;;;;;;7.43;6.93;;;;;;;;;;5117515;28;20600;-64
2022/07/25 11:15:57;;;;;;;7.20;6.70;;;;;;;;;;5117651;28;20203;-64
2022/07/25 11:18:31;;;;;;;7.50;7.00;;;;;;;;;;5116965;28;20199;-64
2022/07/25 11:20:59;;;;;;;7.50;7.00;;;;;;;;;;5116678;28;20218;-64
2022/07/25 11:23:26;;;;;;;7.70;7.10;;;;;;;;;;5116543;28;20207;-64
2022/07/25 11:26:04;;;;;;;6.80;6.30;;;;;;;;;;5117533;28;20195;-64
2022/07/25 11:28:37;;;;;;;7.85;7.30;;;;;;;;;;5122403;27;20566;-64
2022/07/25 11:31:05;;;;;;;7.47;6.97;;;;;;;;;;5137689;27;20545;-64
2022/07/25 11:33:32;;;;;;;7.55;6.95;;;;;;;;;;5137491;27;20194;-64
2022/07/25 11:36:00;;;;;;;7.55;7.00;;;;;;;;;;5137316;27;20202;-64
2022/07/25 11:38:27;;;;;;;7.53;7.03;;;;;;;;;;5136807;27;20559;-63
2022/07/25 11:40:55;;;;;;;7.82;7.22;;;;;;;;;;5136266;27;20218;-64
2022/07/25 11:43:24;;;;;;;7.18;6.68;;;;;;;;;;5137257;27;20198;-63
2022/07/25 11:45:59;;;;;;;7.00;6.50;;;;;;;;;;5133364;27;20281;-63
2022/07/25 11:48:32;;;;;;;7.32;6.72;;;;;;;;;;5134017;27;20597;-62
2022/07/25 11:51:10;;;;;;;7.25;6.75;;;;;;;;;;5137646;27;20199;-63
2022/07/25 11:53:39;;;;;;;7.47;6.97;;;;;;;;;;5137328;27;20217;-62
2022/07/25 11:56:11;;;;;;;7.57;7.07;;;;;;;;;;5137493;27;20190;-63
2022/07/25 11:58:40;;;;;;;7.50;6.90;;;;;;;;;;5137431;27;20247;-63
2022/07/25 12:01:12;;;;;;;7.20;6.70;;;;;;;;;;5137815;27;20226;-63
2022/07/25 12:03:39;;;;;;;7.55;7.05;;;;;;;;;;5136495;27;20263;-62
2022/07/25 12:06:08;;;;;;;7.07;6.57;;;;;;;;;;5137324;27;20199;-62
2022/07/25 12:08:38;;;;;;;8.05;7.47;;;;;;;;;;5135316;27;20291;-63
2022/07/25 12:11:05;;;;;;;7.50;7.00;;;;;;;;;;5136428;27;20195;-62
2022/07/25 12:13:32;;;;;;;7.35;6.85;;;;;;;;;;5137115;27;20606;-63
2022/07/25 12:16:01;;;;;;;7.20;6.60;;;;;;;;;;5136395;27;20244;-63
2022/07/25 12:18:29;;;;;;;7.70;7.10;;;;;;;;;;5136739;27;20195;-63
2022/07/25 12:20:56;;;;;;;6.80;6.30;;;;;;;;;;5136028;27;20214;-64
2022/07/25 12:23:23;;;;;;;7.38;6.85;;;;;;;;;;5136185;27;20209;-63
2022/07/25 12:25:51;;;;;;;7.00;6.50;;;;;;;;;;5136411;27;20497;-63
2022/07/25 12:28:18;;;;;;;7.30;6.80;;;;;;;;;;5135754;27;20230;-63
2022/07/25 12:30:46;;;;;;;7.43;6.82;;;;;;;;;;5127121;27;20199;-63
2022/07/25 12:33:16;;;;;;;7.40;6.90;;;;;;;;;;5125062;27;20225;-63
2022/07/25 12:35:44;;;;;;;7.25;6.75;;;;;;;;;;5126537;27;20199;-64
2022/07/25 12:38:13;;;;;;;7.47;6.88;;;;;;;;;;5115054;28;20198;-63
2022/07/25 12:40:41;;;;;;;6.60;6.20;;;;;;;;;;5122762;27;20229;-63
2022/07/25 12:43:09;;;;;;;7.13;6.63;;;;;;;;;;5135934;27;20194;-63
2022/07/25 12:45:36;;;;;;;6.68;6.28;;;;;;;;;;5126864;27;20195;-63
2022/07/25 12:48:04;;;;;;;7.20;6.60;;;;;;;;;;5133919;27;20225;-63
2022/07/25 12:50:32;;;;;;;7.10;6.60;;;;;;;;;;5132638;27;20194;-63
2022/07/25 12:53:00;;;;;;;6.60;6.10;;;;;;;;;;5116835;28;20187;-63
2022/07/25 12:55:27;;;;;;;7.35;6.85;;;;;;;;;;5124616;27;20221;-63
2022/07/25 12:57:55;;;;;;;6.65;6.25;;;;;;;;;;5125893;27;20247;-63
2022/07/25 13:00:23;;;;;;;6.57;6.13;;;;;;;;;;5126804;27;20206;-63
2022/07/25 13:02:51;;;;;;;7.18;6.68;;;;;;;;;;5135227;27;20470;-63
2022/07/25 13:05:19;;;;;;;6.80;6.20;;;;;;;;;;5119707;27;20205;-63
2022/07/25 13:07:48;;;;;;;6.38;5.97;;;;;;;;;;5123064;27;20239;-63
2022/07/25 13:10:16;;;;;;;6.47;5.97;;;;;;;;;;5128753;27;20741;-63
2022/07/25 13:12:43;;;;;;;6.78;6.28;;;;;;;;;;5132663;27;20194;-63
2022/07/25 13:15:11;;;;;;;6.78;6.38;;;;;;;;;;5118945;27;20199;-63
2022/07/25 13:17:39;;;;;;;6.82;6.32;;;;;;;;;;5119584;27;20267;-63
2022/07/25 13:20:07;;;;;;;6.95;6.45;;;;;;;;;;5131527;27;20233;-63
2022/07/25 13:22:34;;;;;;;6.40;6.00;;;;;;;;;;5121970;27;20225;-63
2022/07/25 13:25:03;;;;;;;7.15;6.65;;;;;;;;;;5130373;27;20247;-63
2022/07/25 13:27:31;;;;;;;6.63;5.97;;;;;;;;;;5127937;27;20210;-63
2022/07/25 13:29:58;;;;;;;7.05;6.55;;;;;;;;;;5133016;27;20225;-63
2022/07/25 13:32:27;;;;;;;6.90;6.30;;;;;;;;;;5134132;27;20264;-63
2022/07/25 13:34:55;;;;;;;6.90;6.32;;;;;;;;;;5124305;27;20222;-63
2022/07/25 13:37:23;;;;;;;6.97;6.38;;;;;;;;;;5120968;27;20206;-63
2022/07/25 13:39:50;;;;;;;7.20;6.60;;;;;;;;;;5128993;28;20634;-63
2022/07/25 13:42:19;;;;;;;6.43;5.97;;;;;;;;;;5127682;28;20229;-63
2022/07/25 13:44:46;;;;;;;7.20;6.70;;;;;;;;;;5125474;28;20195;-67
2022/07/25 13:47:14;;;;;;;6.95;6.45;;;;;;;;;;5125465;28;20206;-63
2022/07/25 13:49:41;;;;;;;6.95;6.45;;;;;;;;;;5130594;28;20298;-63
2022/07/25 13:52:09;;;;;;;6.78;6.35;;;;;;;;;;5136022;27;20195;-63
2022/07/25 13:54:36;;;;;;;6.90;6.40;;;;;;;;;;5127204;27;20202;-63
2022/07/25 13:57:04;;;;;;;6.97;6.47;;;;;;;;;;5130415;27;20209;-63
2022/07/25 13:59:32;;;;;;;7.53;7.03;;;;;;;;;;5139965;27;20202;-63
2022/07/25 14:02:00;;;;;;;6.68;6.20;;;;;;;;;;5133419;27;20638;-63
2022/07/25 14:04:27;;;;;;;7.00;6.50;;;;;;;;;;5124467;27;20190;-63
2022/07/25 14:06:54;;;;;;;6.40;6.00;;;;;;;;;;5135166;27;20272;-63
2022/07/25 14:09:23;;;;;;;7.30;6.70;;;;;;;;;;5131551;27;20199;-64
2022/07/25 14:11:50;;;;;;;7.03;6.53;;;;;;;;;;5125596;27;20190;-63
2022/07/25 14:14:18;;;;;;;7.22;6.72;;;;;;;;;;5122713;27;20202;-64
2022/07/25 14:16:47;;;;;;;6.95;6.45;;;;;;;;;;5128648;27;20199;-63
2022/07/25 14:19:16;;;;;;;6.50;6.10;;;;;;;;;;5130002;27;20198;-63
2022/07/25 14:21:43;;;;;;;6.80;6.30;;;;;;;;;;5137817;27;20701;-64
2022/07/25 14:24:10;;;;;;;7.28;6.78;;;;;;;;;;5139205;27;20542;-63
2022/07/25 14:26:38;;;;;;;6.53;6.03;;;;;;;;;;5132998;27;20637;-63
2022/07/25 14:29:09;;;;;;;6.78;6.28;;;;;;;;;;5128069;27;20229;-63
2022/07/25 14:31:37;;;;;;;7.18;6.68;;;;;;;;;;5125694;27;20206;-63
2022/07/25 14:34:05;;;;;;;7.18;6.68;;;;;;;;;;5138884;27;20507;-63
2022/07/25 14:36:33;;;;;;;7.00;6.50;;;;;;;;;;5128196;27;20207;-63
2022/07/25 14:39:00;;;;;;;6.82;6.32;;;;;;;;;;5121437;27;20310;-63
2022/07/25 14:41:28;;;;;;;6.82;6.32;;;;;;;;;;5131867;27;20228;-65
2022/07/25 14:43:55;;;;;;;6.70;6.20;;;;;;;;;;5137742;27;20198;-63
2022/07/25 14:46:23;;;;;;;7.32;6.82;;;;;;;;;;5119230;27;20199;-62
2022/07/25 14:48:51;;;;;;;6.60;6.10;;;;;;;;;;5126838;27;20697;-63
2022/07/25 14:51:20;;;;;;;6.97;6.47;;;;;;;;;;5139064;27;20502;-63